createdAt,value
2019-03-05T00:01:23.633Z,99.90
2019-03-05T00:03:55.689Z,99.90
2019-03-05T00:06:24.611Z,99.90
2019-03-05T00:08:53.825Z,99.90
2019-03-05T00:11:23.541Z,99.90
2019-03-05T00:13:53.122Z,99.90
2019-03-05T00:16:22.772Z,99.90
2019-03-05T00:18:53.119Z,99.90
2019-03-05T00:21:25.740Z,99.90
2019-03-05T00:23:57.111Z,99.90
2019-03-05T00:26:29.843Z,99.90
2019-03-05T00:29:38.782Z,99.90
2019-03-05T00:32:07.805Z,99.90
2019-03-05T00:35:03.119Z,99.90
2019-03-05T00:38:03.120Z,99.90
2019-03-05T00:40:49.705Z,99.90
2019-03-05T00:43:50.389Z,99.90
2019-03-05T00:46:29.371Z,99.90
2019-03-05T00:49:42.608Z,99.90
2019-03-05T00:53:04.099Z,99.90
2019-03-05T00:56:04.895Z,99.90
2019-03-05T00:59:27.190Z,99.90
2019-03-05T01:02:29.902Z,99.90
2019-03-05T01:05:43.605Z,99.90
2019-03-05T01:08:12.483Z,99.90
2019-03-05T01:10:41.554Z,99.90
2019-03-05T01:13:10.743Z,99.90
2019-03-05T01:15:39.754Z,99.90
2019-03-05T01:18:10.900Z,99.90
2019-03-05T01:20:40.163Z,99.90
2019-03-05T01:23:09.590Z,99.90
2019-03-05T01:25:43.060Z,99.90
2019-03-05T01:28:12.166Z,99.90
2019-03-05T01:31:15.488Z,99.90
2019-03-05T01:34:16.881Z,99.90
2019-03-05T01:36:52.873Z,99.90
2019-03-05T01:39:41.655Z,99.90
2019-03-05T01:42:17.780Z,99.90
2019-03-05T01:44:48.426Z,99.90
2019-03-05T01:47:18.205Z,99.90
2019-03-05T01:49:47.503Z,99.90
2019-03-05T01:52:17.338Z,99.90
2019-03-05T01:54:49.962Z,99.90
2019-03-05T01:57:22.331Z,99.90
2019-03-05T01:59:52.249Z,99.90
2019-03-05T02:02:21.730Z,99.90
2019-03-05T02:04:51.674Z,99.90
2019-03-05T02:07:23.798Z,99.90
2019-03-05T02:09:53.401Z,99.90
2019-03-05T02:12:22.645Z,99.90
2019-03-05T02:14:52.288Z,99.90
2019-03-05T02:17:22.867Z,99.90
2019-03-05T02:19:52.217Z,99.90
2019-03-05T02:22:39.734Z,99.90
2019-03-05T02:25:40.857Z,99.90
2019-03-05T02:28:28.820Z,99.90
2019-03-05T02:31:14.441Z,99.90
2019-03-05T02:34:22.977Z,99.90
2019-03-05T02:37:29.584Z,99.90
2019-03-05T02:40:08.361Z,99.90
2019-03-05T02:43:11.285Z,99.90
2019-03-05T02:46:06.459Z,99.90
2019-03-05T02:49:16.964Z,99.90
2019-03-05T02:52:18.999Z,99.90
2019-03-05T02:55:02.032Z,99.90
2019-03-05T02:57:29.576Z,99.90
2019-03-05T02:59:58.503Z,99.90
2019-03-05T03:02:54.206Z,99.90
2019-03-05T03:05:39.712Z,99.90
2019-03-05T03:08:08.968Z,99.90
2019-03-05T03:10:40.167Z,99.90
2019-03-05T03:13:09.218Z,99.90
2019-03-05T03:15:38.042Z,99.90
2019-03-05T03:18:06.950Z,99.90
2019-03-05T03:20:35.870Z,99.90
2019-03-05T03:23:04.794Z,99.90
2019-03-05T03:25:33.803Z,99.90
2019-03-05T03:28:02.767Z,99.90
2019-03-05T03:30:33.500Z,99.90
2019-03-05T03:33:04.414Z,99.90
2019-03-05T03:35:33.426Z,99.90
2019-03-05T03:38:02.324Z,99.90
2019-03-05T03:40:31.433Z,99.90
2019-03-05T03:43:00.739Z,99.90
2019-03-05T03:45:29.698Z,99.90
2019-03-05T03:47:58.630Z,99.90
2019-03-05T03:50:27.764Z,99.90
2019-03-05T03:52:56.710Z,99.90
2019-03-05T03:55:25.744Z,99.90
2019-03-05T03:57:54.815Z,99.90
2019-03-05T04:00:24.629Z,99.90
2019-03-05T04:02:54.666Z,99.90
2019-03-05T04:05:24.214Z,99.90
2019-03-05T04:07:53.204Z,99.90
2019-03-05T04:10:22.270Z,99.90
2019-03-05T04:12:51.243Z,99.90
2019-03-05T04:15:21.138Z,99.90
2019-03-05T04:17:50.235Z,99.90
2019-03-05T04:20:32.381Z,99.90
2019-03-05T04:23:01.314Z,99.90
2019-03-05T04:25:30.338Z,99.90
2019-03-05T04:27:59.344Z,99.90
2019-03-05T04:30:28.413Z,99.90
2019-03-05T04:32:57.311Z,99.90
2019-03-05T04:35:26.153Z,99.90
2019-03-05T04:37:54.957Z,99.90
2019-03-05T04:40:23.934Z,99.90
2019-03-05T04:42:55.337Z,99.90
2019-03-05T04:45:41.579Z,99.90
2019-03-05T04:48:10.819Z,99.90
2019-03-05T04:50:47.832Z,99.90
2019-03-05T04:53:17.221Z,99.90
2019-03-05T04:55:46.159Z,99.90
2019-03-05T04:58:15.018Z,99.90
2019-03-05T05:00:44.193Z,99.90
2019-03-05T05:03:13.339Z,99.90
2019-03-05T05:05:42.335Z,99.90
2019-03-05T05:08:13.535Z,99.90
2019-03-05T05:10:42.473Z,99.90
2019-03-05T05:13:11.472Z,99.90
2019-03-05T05:15:40.410Z,99.90
2019-03-05T05:18:09.595Z,99.90
2019-03-05T05:20:38.508Z,99.90
2019-03-05T05:23:07.639Z,99.90
2019-03-05T05:25:38.895Z,99.90
2019-03-05T05:28:07.569Z,99.90
2019-03-05T05:30:38.205Z,99.90
2019-03-05T05:33:07.394Z,99.90
2019-03-05T05:35:37.069Z,99.90
2019-03-05T05:38:06.181Z,99.90
2019-03-05T05:40:37.107Z,99.90
2019-03-05T05:43:08.075Z,99.90
2019-03-05T05:45:55.517Z,99.90
2019-03-05T05:48:24.387Z,99.90
2019-03-05T05:50:53.413Z,99.90
2019-03-05T05:53:22.293Z,99.90
2019-03-05T05:55:51.328Z,99.90
2019-03-05T05:58:20.271Z,99.90
2019-03-05T06:00:54.295Z,99.90
2019-03-05T06:03:23.399Z,99.90
2019-03-05T06:05:52.307Z,99.90
2019-03-05T06:08:21.179Z,99.90
2019-03-05T06:10:52.773Z,99.90
2019-03-05T06:13:20.703Z,99.90
2019-03-05T06:15:49.763Z,99.90
2019-03-05T06:18:18.684Z,99.90
2019-03-05T06:20:47.661Z,99.90
2019-03-05T06:23:16.924Z,99.90
2019-03-05T06:25:48.696Z,99.90
2019-03-05T06:28:17.567Z,99.90
2019-03-05T06:30:46.465Z,99.90
2019-03-05T06:33:15.303Z,99.90
2019-03-05T06:35:44.150Z,99.90
2019-03-05T06:38:13.050Z,99.90
2019-03-05T06:40:41.952Z,99.90
2019-03-05T06:43:13.322Z,99.90
2019-03-05T06:45:42.110Z,99.90
2019-03-05T06:48:11.021Z,99.90
2019-03-05T06:50:39.831Z,99.90
2019-03-05T06:53:08.644Z,99.90
2019-03-05T06:55:37.601Z,99.90
2019-03-05T06:58:06.831Z,99.90
2019-03-05T07:00:37.292Z,99.90
2019-03-05T07:03:06.901Z,99.90
2019-03-05T07:06:11.794Z,99.90
2019-03-05T07:09:11.185Z,99.90
2019-03-05T07:12:04.591Z,99.90
2019-03-05T07:14:43.928Z,99.90
2019-03-05T07:17:19.390Z,99.90
2019-03-05T07:20:15.392Z,99.90
2019-03-05T07:23:05.929Z,99.90
2019-03-05T07:25:34.815Z,99.90
2019-03-05T07:28:03.672Z,99.90
2019-03-05T07:30:32.669Z,99.90
2019-03-05T07:33:01.744Z,99.90
2019-03-05T07:35:32.820Z,99.90
2019-03-05T07:38:01.815Z,99.90
2019-03-05T07:40:30.654Z,99.90
2019-03-05T07:42:59.663Z,99.90
2019-03-05T07:45:28.643Z,99.90
2019-03-05T07:47:57.491Z,99.90
2019-03-05T07:50:26.348Z,99.90
2019-03-05T07:52:55.353Z,99.90
2019-03-05T07:55:24.323Z,99.90
2019-03-05T07:57:53.200Z,99.90
2019-03-05T08:00:22.571Z,99.90
2019-03-05T08:02:51.727Z,99.90
2019-03-05T08:05:20.807Z,99.90
2019-03-05T08:07:49.883Z,99.90
2019-03-05T08:10:21.859Z,99.90
2019-03-05T08:13:14.092Z,99.90
2019-03-05T08:16:02.320Z,99.90
2019-03-05T08:18:27.497Z,99.90
2019-03-05T08:20:56.509Z,99.90
2019-03-05T08:23:25.365Z,99.90
2019-03-05T08:25:54.336Z,99.90
2019-03-05T08:28:23.156Z,99.90
2019-03-05T08:30:52.081Z,99.90
2019-03-05T08:33:21.015Z,99.90
2019-03-05T08:35:49.809Z,99.90
2019-03-05T08:38:17.880Z,99.90
2019-03-05T08:40:46.049Z,99.90
2019-03-05T08:43:15.350Z,99.90
2019-03-05T08:45:43.386Z,99.90
2019-03-05T08:48:11.375Z,99.90
2019-03-05T08:50:40.405Z,99.90
2019-03-05T08:53:09.358Z,99.90
2019-03-05T08:55:38.317Z,99.90
2019-03-05T08:58:07.303Z,99.90
2019-03-05T09:00:36.433Z,99.90
2019-03-05T09:03:05.591Z,99.90
2019-03-05T09:05:33.639Z,99.90
2019-03-05T09:08:01.651Z,99.90
2019-03-05T09:10:31.117Z,99.90
2019-03-05T09:12:59.252Z,99.90
2019-03-05T09:15:28.475Z,99.90
2019-03-05T09:17:57.488Z,99.90
2019-03-05T09:20:26.390Z,99.90
2019-03-05T09:22:55.284Z,99.90
2019-03-05T09:25:24.240Z,99.90
2019-03-05T09:27:55.156Z,99.90
2019-03-05T09:30:24.007Z,99.90
2019-03-05T09:32:53.012Z,99.90
2019-03-05T09:35:21.958Z,99.90
2019-03-05T09:37:49.960Z,99.90
2019-03-05T09:40:20.900Z,99.90
2019-03-05T09:42:49.974Z,99.90
2019-03-05T09:45:19.271Z,99.90
2019-03-05T09:47:48.390Z,99.90
2019-03-05T09:50:17.584Z,99.90
2019-03-05T09:52:54.995Z,99.90
2019-03-05T09:55:18.976Z,99.90
2019-03-05T09:57:53.372Z,99.90
2019-03-05T10:00:22.917Z,99.90
2019-03-05T10:02:51.733Z,99.90
2019-03-05T10:05:20.772Z,99.90
2019-03-05T10:07:50.078Z,99.90
2019-03-05T10:10:21.168Z,99.90
2019-03-05T10:12:50.142Z,99.90
2019-03-05T10:15:20.065Z,99.90
2019-03-05T10:17:50.196Z,99.90
2019-03-05T10:20:20.794Z,99.90
2019-03-05T10:22:49.941Z,99.90
2019-03-05T10:25:20.427Z,99.90
2019-03-05T10:27:49.782Z,99.90
2019-03-05T10:30:24.818Z,99.90
2019-03-05T10:32:52.145Z,99.90
2019-03-05T10:35:22.614Z,99.90
2019-03-05T10:37:52.485Z,99.90
2019-03-05T10:40:22.626Z,99.90
2019-03-05T10:42:51.451Z,99.90
2019-03-05T10:45:20.798Z,99.90
2019-03-05T10:47:50.428Z,99.90
2019-03-05T10:50:22.671Z,99.20
2019-03-05T10:52:51.643Z,95.30
2019-03-05T10:55:26.307Z,96.10
2019-03-05T10:57:51.429Z,98.50
2019-03-05T11:00:25.876Z,99.50
2019-03-05T11:02:55.515Z,99.90
2019-03-05T11:05:26.168Z,99.90
2019-03-05T11:07:55.059Z,99.90
2019-03-05T11:10:24.380Z,99.90
2019-03-05T11:12:53.558Z,99.90
2019-03-05T11:15:24.291Z,99.90
2019-03-05T11:17:56.208Z,99.90
2019-03-05T11:20:26.043Z,99.90
2019-03-05T11:22:55.312Z,99.90
2019-03-05T11:25:24.423Z,99.90
2019-03-05T11:27:53.267Z,99.90
2019-03-05T11:30:35.311Z,99.90
2019-03-05T11:32:55.022Z,99.90
2019-03-05T11:35:25.549Z,99.70
2019-03-05T11:37:54.571Z,96.80
2019-03-05T11:40:23.534Z,97.90
2019-03-05T11:42:52.598Z,99.80
2019-03-05T11:45:26.335Z,99.90
2019-03-05T11:47:55.925Z,99.90
2019-03-05T11:50:25.488Z,99.90
2019-03-05T11:52:55.078Z,99.90
2019-03-05T11:55:24.186Z,99.90
2019-03-05T11:57:53.124Z,99.90
2019-03-05T12:00:30.123Z,99.90
2019-03-05T12:02:59.135Z,99.90
2019-03-05T12:05:28.156Z,99.90
2019-03-05T12:07:57.243Z,99.90
2019-03-05T12:10:26.345Z,99.90
2019-03-05T12:12:55.218Z,99.90
2019-03-05T12:15:24.128Z,99.90
2019-03-05T12:17:53.290Z,99.90
2019-03-05T12:20:22.281Z,99.90
2019-03-05T12:22:51.327Z,97.20
2019-03-05T12:25:20.585Z,93.40
2019-03-05T12:27:49.825Z,90.70
2019-03-05T12:30:21.363Z,86.50
2019-03-05T12:32:50.368Z,85.10
2019-03-05T12:35:19.442Z,86.50
2019-03-05T12:37:48.602Z,86.40
2019-03-05T12:40:17.758Z,83.60
2019-03-05T12:42:46.895Z,81.10
2019-03-05T12:45:16.311Z,81.70
2019-03-05T12:47:47.331Z,81.80
2019-03-05T12:50:17.646Z,78.10
2019-03-05T12:52:47.412Z,73.00
2019-03-05T12:55:16.491Z,73.80
2019-03-05T12:57:45.393Z,75.20
2019-03-05T13:00:18.075Z,70.70
2019-03-05T13:02:47.069Z,68.70
2019-03-05T13:05:16.299Z,64.50
2019-03-05T13:07:45.524Z,67.00
2019-03-05T13:10:16.590Z,74.40
2019-03-05T13:12:44.732Z,82.80
2019-03-05T13:15:14.379Z,99.90
2019-03-05T13:17:42.387Z,99.90
2019-03-05T13:20:12.008Z,99.90
2019-03-05T13:22:42.398Z,99.90
2019-03-05T13:25:10.064Z,99.90
2019-03-05T13:27:38.078Z,99.90
2019-03-05T13:30:07.376Z,99.90
2019-03-05T13:32:35.383Z,99.90
2019-03-05T13:35:03.486Z,99.90
2019-03-05T13:37:31.487Z,99.90
2019-03-05T13:40:00.454Z,99.90
2019-03-05T13:42:33.412Z,99.90
2019-03-05T13:44:59.816Z,99.90
2019-03-05T13:47:28.935Z,99.90
2019-03-05T13:50:24.306Z,99.90
2019-03-05T13:53:30.411Z,99.90
2019-03-05T13:56:26.390Z,99.90
2019-03-05T13:59:05.522Z,99.90
2019-03-05T14:01:34.412Z,99.90
2019-03-05T14:04:07.583Z,99.90
2019-03-05T14:06:49.332Z,99.90
2019-03-05T14:09:18.354Z,99.90
2019-03-05T14:11:51.434Z,99.90
2019-03-05T14:14:26.528Z,99.90
2019-03-05T14:17:15.521Z,99.90
2019-03-05T14:19:43.709Z,99.90
2019-03-05T14:22:12.752Z,99.90
2019-03-05T14:24:41.676Z,99.90
2019-03-05T14:27:13.507Z,99.90
2019-03-05T14:29:42.435Z,99.90
2019-03-05T14:32:11.786Z,99.90
2019-03-05T14:34:40.931Z,99.90
2019-03-05T14:37:09.909Z,99.90
2019-03-05T14:39:38.718Z,99.80
2019-03-05T14:42:10.178Z,99.90
2019-03-05T14:44:40.455Z,99.90
2019-03-05T14:47:09.557Z,99.50
2019-03-05T14:49:38.671Z,99.90
2019-03-05T14:52:07.982Z,99.90
2019-03-05T14:54:36.917Z,97.20
2019-03-05T14:57:05.897Z,95.30
2019-03-05T14:59:34.986Z,93.40
2019-03-05T15:02:04.002Z,90.70
2019-03-05T15:04:34.374Z,87.10
2019-03-05T15:07:04.752Z,78.00
2019-03-05T15:09:34.081Z,74.20
2019-03-05T15:12:03.074Z,71.70
2019-03-05T15:14:35.786Z,77.40
2019-03-05T15:17:04.996Z,81.90
2019-03-05T15:19:34.746Z,88.60
2019-03-05T15:22:03.919Z,91.70
2019-03-05T15:24:32.957Z,93.80
2019-03-05T15:27:01.921Z,95.50
2019-03-05T15:29:30.916Z,97.50
2019-03-05T15:32:00.007Z,99.40
2019-03-05T15:34:28.903Z,99.90
2019-03-05T15:36:57.838Z,99.90
2019-03-05T15:39:26.876Z,99.90
2019-03-05T15:41:55.757Z,99.90
2019-03-05T15:44:24.805Z,99.90
2019-03-05T15:46:53.794Z,99.90
2019-03-05T15:49:22.875Z,99.90
2019-03-05T15:51:51.996Z,99.90
2019-03-05T15:54:20.957Z,99.90
2019-03-05T15:56:50.205Z,99.90
2019-03-05T15:59:19.289Z,99.90
2019-03-05T16:01:48.481Z,99.90
2019-03-05T16:04:17.405Z,99.90
2019-03-05T16:06:46.590Z,99.90
2019-03-05T16:09:18.375Z,99.90
2019-03-05T16:11:47.359Z,99.90
2019-03-05T16:14:16.387Z,99.90
2019-03-05T16:16:45.277Z,99.90
2019-03-05T16:19:16.503Z,99.90
2019-03-05T16:21:44.732Z,99.90
2019-03-05T16:24:13.587Z,99.90
2019-03-05T16:26:42.441Z,99.90
2019-03-05T16:29:11.619Z,99.90
2019-03-05T16:31:55.927Z,99.90
2019-03-05T16:34:52.272Z,99.90
2019-03-05T16:37:33.370Z,99.90
2019-03-05T16:40:23.019Z,99.90
2019-03-05T16:43:16.811Z,99.90
2019-03-05T16:45:56.058Z,99.90
2019-03-05T16:48:34.679Z,99.90
2019-03-05T16:51:21.598Z,99.90
2019-03-05T16:54:14.635Z,99.90
2019-03-05T16:57:09.054Z,99.90
2019-03-05T17:00:00.321Z,99.90
2019-03-05T17:02:37.859Z,99.90
2019-03-05T17:05:26.941Z,99.90
2019-03-05T17:08:14.959Z,99.90
2019-03-05T17:10:49.949Z,99.90
2019-03-05T17:13:20.448Z,99.90
2019-03-05T17:15:49.488Z,99.90
2019-03-05T17:18:18.382Z,99.90
2019-03-05T17:20:50.689Z,99.90
2019-03-05T17:23:22.615Z,99.90
2019-03-05T17:25:51.610Z,99.90
2019-03-05T17:28:24.910Z,99.90
2019-03-05T17:30:53.777Z,99.90
2019-03-05T17:33:30.206Z,99.90
2019-03-05T17:35:59.129Z,99.90
2019-03-05T17:38:28.163Z,99.90
2019-03-05T17:40:57.327Z,99.90
2019-03-05T17:43:26.626Z,99.90
2019-03-05T17:45:55.473Z,99.90
2019-03-05T17:48:24.457Z,99.90
2019-03-05T17:50:53.513Z,99.90
2019-03-05T17:53:22.481Z,99.90
2019-03-05T17:55:51.492Z,99.90
2019-03-05T17:58:20.502Z,99.90
2019-03-05T18:00:49.784Z,99.90
2019-03-05T18:03:18.705Z,99.90
2019-03-05T18:05:47.832Z,99.90
2019-03-05T18:08:16.786Z,99.90
2019-03-05T18:10:45.925Z,99.90
2019-03-05T18:13:31.804Z,99.90
2019-03-05T18:16:01.256Z,99.90
2019-03-05T18:18:30.264Z,99.90
2019-03-05T18:20:59.154Z,99.90
2019-03-05T18:23:28.005Z,99.90
2019-03-05T18:25:57.095Z,99.90
2019-03-05T18:28:26.427Z,99.90
2019-03-05T18:30:55.416Z,99.90
2019-03-05T18:33:24.588Z,99.90
2019-03-05T18:35:53.706Z,99.90
2019-03-05T18:38:22.666Z,99.90
2019-03-05T18:40:52.195Z,99.90
2019-03-05T18:43:21.229Z,99.90
2019-03-05T18:45:50.128Z,99.90
2019-03-05T18:48:19.011Z,99.90
2019-03-05T18:50:47.927Z,99.90
2019-03-05T18:53:17.105Z,99.90
2019-03-05T18:55:46.109Z,99.90
2019-03-05T18:58:15.042Z,99.90
2019-03-05T19:00:44.024Z,99.90
2019-03-05T19:03:13.219Z,99.90
2019-03-05T19:05:42.102Z,99.90
2019-03-05T19:08:11.154Z,99.90
2019-03-05T19:10:40.204Z,99.90
2019-03-05T19:13:09.283Z,99.90
2019-03-05T19:15:38.444Z,99.90
2019-03-05T19:18:12.893Z,99.90
2019-03-05T19:20:42.010Z,99.90
2019-03-05T19:23:11.013Z,99.90
2019-03-05T19:25:40.188Z,99.90
2019-03-05T19:28:11.412Z,99.90
2019-03-05T19:30:40.396Z,99.90
2019-03-05T19:33:09.540Z,99.90
2019-03-05T19:35:38.571Z,99.90
2019-03-05T19:38:07.575Z,99.90
2019-03-05T19:40:37.555Z,99.90
2019-03-05T19:43:06.595Z,99.90
2019-03-05T19:45:35.627Z,99.90
2019-03-05T19:48:04.850Z,99.90
2019-03-05T19:50:33.964Z,99.90
2019-03-05T19:53:03.067Z,99.90
2019-03-05T19:55:32.176Z,99.90
2019-03-05T19:58:11.347Z,99.90
2019-03-05T20:00:50.261Z,99.90
2019-03-05T20:03:19.333Z,99.90
2019-03-05T20:05:48.843Z,99.90
2019-03-05T20:08:17.968Z,99.90
2019-03-05T20:10:47.065Z,99.90
2019-03-05T20:13:16.751Z,99.90
2019-03-05T20:15:46.321Z,99.90
2019-03-05T20:18:15.281Z,99.90
2019-03-05T20:20:44.288Z,99.90
2019-03-05T20:23:13.339Z,99.90
2019-03-05T20:25:42.357Z,99.90
2019-03-05T20:28:11.493Z,99.90
2019-03-05T20:30:40.930Z,99.90
2019-03-05T20:33:26.737Z,99.90
2019-03-05T20:35:55.702Z,99.90
2019-03-05T20:38:24.707Z,99.90
2019-03-05T20:40:53.794Z,99.90
2019-03-05T20:43:22.916Z,99.90
2019-03-05T20:45:53.114Z,99.90
2019-03-05T20:48:22.256Z,99.90
2019-03-05T20:50:51.266Z,99.90
2019-03-05T20:53:20.196Z,99.90
2019-03-05T20:55:49.180Z,99.90
2019-03-05T20:58:18.268Z,99.90
2019-03-05T21:00:47.796Z,99.90
2019-03-05T21:03:16.692Z,99.90
2019-03-05T21:05:45.950Z,99.90
2019-03-05T21:08:16.108Z,99.90
2019-03-05T21:10:45.218Z,99.90
2019-03-05T21:13:14.260Z,99.90
2019-03-05T21:15:43.381Z,99.90
2019-03-05T21:18:12.378Z,99.90
2019-03-05T21:20:41.295Z,99.90
2019-03-05T21:23:10.379Z,99.90
2019-03-05T21:25:39.433Z,99.90
2019-03-05T21:28:08.470Z,99.90
2019-03-05T21:30:37.576Z,99.90
2019-03-05T21:33:06.756Z,99.90
2019-03-05T21:35:35.733Z,99.90
2019-03-05T21:38:04.850Z,99.90
2019-03-05T21:40:34.001Z,99.90
2019-03-05T21:43:03.092Z,99.90
2019-03-05T21:45:34.275Z,99.90
2019-03-05T21:48:04.108Z,99.90
2019-03-05T21:50:33.183Z,99.90
2019-03-05T21:53:02.471Z,99.90
2019-03-05T21:55:31.828Z,99.90
2019-03-05T21:58:02.613Z,99.90
2019-03-05T22:00:32.095Z,99.90
2019-03-05T22:03:01.354Z,99.90
2019-03-05T22:05:30.530Z,99.90
2019-03-05T22:07:59.619Z,99.90
2019-03-05T22:10:28.837Z,99.90
2019-03-05T22:12:58.089Z,99.90
2019-03-05T22:15:27.235Z,99.90
2019-03-05T22:17:56.416Z,99.90
2019-03-05T22:20:31.891Z,99.90
2019-03-05T22:22:59.285Z,99.90
2019-03-05T22:25:29.199Z,99.90
2019-03-05T22:27:58.689Z,99.90
2019-03-05T22:30:28.525Z,99.90
2019-03-05T22:32:57.881Z,99.90
2019-03-05T22:35:27.279Z,99.90
2019-03-05T22:37:56.301Z,99.90
2019-03-05T22:40:25.420Z,99.90
2019-03-05T22:42:54.593Z,99.90
2019-03-05T22:45:24.219Z,99.90
2019-03-05T22:47:53.604Z,99.90
2019-03-05T22:50:23.236Z,99.90
2019-03-05T22:52:52.613Z,99.90
2019-03-05T22:55:21.815Z,99.90
2019-03-05T22:57:51.217Z,99.90
2019-03-05T23:00:55.453Z,99.90
2019-03-05T23:03:25.860Z,99.90
2019-03-05T23:05:55.075Z,99.90
2019-03-05T23:08:24.231Z,99.90
2019-03-05T23:10:53.396Z,99.90
2019-03-05T23:13:22.417Z,99.90
2019-03-05T23:15:51.863Z,99.90
2019-03-05T23:18:22.585Z,99.90
2019-03-05T23:20:51.936Z,99.90
2019-03-05T23:23:21.469Z,99.90
2019-03-05T23:25:50.731Z,99.90
2019-03-05T23:28:19.865Z,99.90
2019-03-05T23:30:48.995Z,99.90
2019-03-05T23:33:19.225Z,99.90
2019-03-05T23:35:48.278Z,99.90
2019-03-05T23:38:17.203Z,99.90
2019-03-05T23:40:46.394Z,99.90
2019-03-05T23:43:15.442Z,99.90
2019-03-05T23:45:44.793Z,99.90
2019-03-05T23:48:29.005Z,99.90
2019-03-05T23:50:58.640Z,99.90
2019-03-05T23:53:27.645Z,99.90
2019-03-05T23:55:56.616Z,99.90
2019-03-05T23:58:25.473Z,99.90
